createdAt,value
2022-11-12T08:12:05.457Z,7.30
2022-11-12T08:15:01.703Z,7.50
2022-11-12T08:22:36.028Z,7.70
2022-11-12T08:25:52.565Z,7.90
2022-11-12T08:33:26.537Z,8.10
2022-11-12T08:36:15.596Z,8.30
2022-11-12T08:39:01.982Z,8.50
2022-11-12T08:42:39.660Z,8.60
2022-11-12T08:45:33.623Z,8.70
2022-11-12T08:48:19.860Z,8.80
2022-11-12T08:51:14.845Z,8.80
2022-11-12T08:54:26.032Z,9.00
2022-11-12T08:57:11.799Z,9.10
2022-11-12T08:59:57.525Z,9.20
2022-11-12T09:02:48.020Z,9.30
2022-11-12T09:05:37.451Z,9.40
2022-11-12T09:08:25.892Z,9.50
2022-11-12T09:11:12.373Z,9.60
2022-11-12T09:18:48.222Z,10.00
2022-11-12T09:21:34.208Z,10.00
2022-11-12T09:24:38.197Z,10.20
2022-11-12T09:27:26.896Z,10.30
2022-11-12T09:31:21.217Z,10.40
2022-11-12T09:34:07.345Z,10.60
2022-11-12T09:40:09.828Z,10.80
2022-11-12T09:43:05.003Z,10.80
2022-11-12T09:46:06.777Z,10.90
2022-11-12T09:49:18.439Z,11.00
2022-11-12T09:52:23.450Z,11.10
2022-11-12T09:55:22.416Z,11.20
2022-11-12T09:59:03.555Z,11.20
2022-11-12T10:02:52.551Z,11.30
2022-11-12T10:06:19.089Z,11.50
2022-11-12T10:09:25.706Z,11.60
2022-11-12T10:12:38.071Z,11.80
2022-11-12T10:16:00.469Z,11.80
2022-11-12T10:18:55.528Z,11.90
2022-11-12T10:22:50.599Z,12.10
2022-11-12T10:26:12.154Z,12.20
2022-11-12T10:29:52.225Z,12.30
2022-11-12T10:32:43.192Z,12.40
2022-11-12T10:35:29.248Z,12.60
2022-11-12T10:43:02.721Z,12.80
2022-11-12T10:46:23.326Z,12.90
2022-11-12T10:49:16.396Z,13.10
2022-11-12T10:52:02.504Z,13.20
2022-11-12T10:59:41.046Z,13.50
2022-11-12T11:02:27.955Z,13.70
2022-11-12T11:05:39.493Z,13.80
2022-11-12T11:08:44.521Z,13.90
2022-11-12T11:11:31.672Z,14.10
2022-11-12T11:14:31.931Z,14.20
2022-11-12T11:17:19.190Z,14.40
2022-11-12T11:20:29.296Z,14.60
2022-11-12T11:23:30.642Z,14.70
2022-11-12T11:27:08.925Z,14.80
2022-11-12T11:30:16.992Z,14.90
2022-11-12T11:33:24.579Z,15.10
2022-11-12T11:36:45.655Z,15.40
2022-11-12T11:40:01.587Z,15.60
2022-11-12T11:42:54.993Z,15.80
2022-11-12T11:46:36.108Z,15.90
2022-11-12T11:50:02.859Z,16.00
2022-11-12T11:53:22.114Z,16.30
2022-11-12T11:56:45.348Z,16.50
2022-11-12T12:04:45.789Z,16.60
2022-11-12T12:08:02.228Z,16.60
2022-11-12T12:11:27.354Z,16.80
2022-11-12T12:14:36.631Z,16.90
2022-11-12T12:17:34.302Z,17.00
2022-11-12T12:21:08.381Z,17.20
2022-11-12T12:24:06.251Z,17.20
2022-11-12T12:26:55.172Z,17.20
2022-11-12T12:29:55.795Z,17.30
2022-11-12T12:33:02.585Z,17.40
2022-11-12T12:36:05.415Z,17.20
2022-11-12T12:43:22.595Z,17.20
2022-11-12T12:46:15.859Z,17.30
2022-11-12T12:49:05.328Z,17.10
2022-11-12T12:51:55.792Z,17.10
2022-11-12T12:54:48.144Z,17.30
2022-11-12T12:57:40.180Z,17.30
2022-11-12T13:00:30.776Z,17.30
2022-11-12T13:03:44.924Z,17.30
2022-11-12T13:13:15.616Z,17.30
2022-11-12T13:16:41.382Z,17.20
2022-11-12T13:25:16.814Z,17.10
2022-11-12T13:28:03.332Z,16.90
2022-11-12T13:30:49.517Z,16.80
2022-11-12T13:33:39.062Z,16.70
2022-11-12T13:36:32.350Z,16.70
2022-11-12T13:39:22.709Z,16.70
2022-11-12T13:42:50.693Z,16.60
2022-11-12T13:46:00.825Z,16.50
2022-11-12T13:48:57.624Z,16.40
2022-11-12T13:51:53.357Z,16.30
2022-11-12T13:54:39.913Z,16.30
2022-11-12T13:57:33.121Z,16.30
2022-11-12T14:00:23.171Z,16.40
2022-11-12T14:03:19.441Z,16.30
2022-11-12T14:06:47.698Z,16.20
2022-11-12T14:10:17.397Z,16.20
2022-11-12T14:13:29.074Z,16.10
2022-11-12T14:16:59.238Z,16.00
2022-11-12T14:20:18.617Z,16.00
2022-11-12T14:23:24.839Z,15.90
2022-11-12T14:26:14.000Z,15.80
2022-11-12T14:29:00.808Z,15.80
2022-11-12T14:31:59.884Z,15.70
2022-11-12T14:35:39.023Z,15.60
2022-11-12T14:38:43.216Z,15.50
2022-11-12T14:41:37.279Z,15.40
2022-11-12T14:44:44.469Z,15.30
2022-11-12T14:47:30.096Z,15.20
2022-11-12T14:50:25.114Z,15.10
2022-11-12T14:53:30.379Z,15.00
2022-11-12T14:56:39.098Z,14.90
2022-11-12T14:59:25.382Z,14.80
2022-11-12T15:02:52.260Z,14.70
2022-11-12T15:06:40.885Z,14.60
2022-11-12T15:09:52.422Z,14.50
2022-11-12T15:18:43.612Z,14.20
2022-11-12T15:26:36.325Z,13.90
2022-11-12T15:29:52.797Z,13.80
2022-11-12T15:32:55.786Z,13.70
2022-11-12T15:35:45.243Z,13.60
2022-11-12T15:38:37.797Z,13.50
2022-11-12T15:41:28.531Z,13.40
2022-11-12T15:44:14.612Z,13.40
2022-11-12T15:47:01.649Z,13.30
2022-11-12T15:49:57.176Z,13.20
2022-11-12T15:52:43.106Z,13.10
2022-11-12T15:55:29.326Z,13.00
2022-11-12T15:58:30.078Z,12.90
2022-11-12T16:01:16.200Z,12.90
2022-11-12T16:04:05.406Z,12.80
2022-11-12T16:06:51.941Z,12.70
2022-11-12T16:14:31.794Z,12.60
2022-11-12T16:17:18.742Z,12.40
2022-11-12T16:20:43.003Z,12.40
2022-11-12T16:23:31.862Z,12.30
2022-11-12T16:29:59.950Z,12.20
2022-11-12T16:32:48.742Z,12.10
2022-11-12T16:35:36.277Z,12.00
2022-11-12T16:38:23.219Z,12.00
2022-11-12T16:41:14.460Z,11.90
2022-11-12T16:44:00.182Z,11.80
2022-11-12T16:46:47.029Z,11.80
2022-11-12T16:49:38.412Z,11.70
2022-11-12T16:52:25.854Z,11.60
2022-11-12T16:55:12.638Z,11.60
2022-11-12T16:57:58.607Z,11.50
2022-11-12T17:00:50.118Z,11.40
2022-11-12T17:03:35.764Z,11.40
2022-11-12T17:06:24.323Z,11.30
2022-11-12T17:09:12.385Z,11.30
2022-11-12T17:11:58.057Z,11.20
2022-11-12T17:14:45.491Z,11.10
2022-11-12T17:17:31.577Z,11.00
2022-11-12T17:20:17.513Z,10.90
2022-11-12T17:23:03.391Z,10.90
2022-11-12T17:25:49.174Z,10.90
2022-11-12T17:29:08.095Z,10.80
2022-11-12T17:31:54.575Z,10.80
2022-11-12T17:34:40.585Z,10.70
2022-11-12T17:37:26.074Z,10.60
2022-11-12T17:40:12.200Z,10.50
2022-11-12T17:42:58.092Z,10.50
2022-11-12T17:45:52.397Z,10.50
2022-11-12T17:48:38.825Z,10.40
2022-11-12T17:51:28.072Z,10.30
2022-11-12T17:54:40.061Z,10.20
2022-11-12T17:57:26.036Z,10.20
2022-11-12T18:00:12.868Z,10.10
2022-11-12T18:02:59.291Z,10.10
2022-11-12T18:05:45.737Z,10.00
2022-11-12T18:08:32.088Z,10.00
2022-11-12T18:11:18.791Z,9.90
2022-11-12T18:14:30.381Z,9.80
2022-11-12T18:17:16.753Z,9.60
2022-11-12T18:20:04.243Z,9.60
2022-11-12T18:22:50.950Z,9.60
2022-11-12T18:25:40.805Z,9.50
2022-11-12T18:28:26.627Z,9.50
2022-11-12T18:31:13.822Z,9.50
2022-11-12T18:34:00.271Z,9.40
2022-11-12T18:36:47.645Z,9.40
2022-11-12T18:39:36.204Z,9.40
2022-11-12T18:42:22.099Z,9.30
2022-11-12T18:45:09.221Z,9.30
2022-11-12T18:48:01.886Z,9.20
2022-11-12T18:51:03.546Z,9.20
2022-11-12T18:54:05.409Z,9.10
2022-11-12T18:56:51.778Z,9.10
2022-11-12T18:59:43.579Z,8.80
2022-11-12T19:02:30.649Z,8.50
2022-11-12T19:06:56.820Z,8.10
2022-11-12T19:10:19.906Z,7.90
2022-11-12T19:13:10.340Z,8.00
2022-11-12T19:19:56.632Z,7.80
2022-11-12T19:23:16.288Z,8.10
2022-11-12T19:26:05.102Z,8.30
2022-11-12T19:28:51.438Z,8.40
2022-11-12T19:31:37.701Z,8.50
2022-11-12T19:34:23.722Z,8.50
2022-11-12T19:37:32.349Z,8.50
2022-11-12T19:40:16.134Z,8.50
2022-11-12T19:43:06.063Z,8.40
2022-11-12T19:45:52.283Z,8.40
2022-11-12T19:48:39.388Z,8.30
2022-11-12T19:51:26.005Z,8.30
2022-11-12T19:59:29.349Z,8.30
2022-11-12T20:02:16.508Z,7.90
2022-11-12T20:05:28.674Z,7.40
2022-11-12T20:08:15.131Z,7.30
2022-11-12T20:11:02.276Z,7.10
2022-11-12T20:13:48.368Z,7.50
2022-11-12T20:16:34.241Z,7.70
2022-11-12T20:19:20.309Z,7.90
2022-11-12T20:22:29.196Z,8.10
2022-11-12T20:25:17.615Z,8.10
2022-11-12T20:28:03.836Z,8.20
2022-11-12T20:31:47.658Z,8.20
2022-11-12T20:34:34.004Z,8.20
2022-11-12T20:37:20.180Z,8.30
2022-11-12T20:40:07.444Z,8.30
2022-11-12T20:43:00.569Z,8.30
2022-11-12T20:45:52.070Z,8.30
2022-11-12T20:49:01.136Z,8.30
2022-11-12T21:05:47.322Z,8.30
2022-11-12T21:10:26.569Z,8.40
2022-11-12T21:13:59.437Z,8.40
2022-11-12T21:28:34.586Z,8.40
2022-11-12T21:36:56.452Z,8.40
2022-11-12T21:40:42.350Z,8.30
2022-11-12T21:43:48.110Z,8.10
2022-11-12T21:49:59.260Z,7.50
2022-11-12T21:51:54.415Z,7.40
2022-11-12T22:44:07.070Z,8.00
2022-11-12T23:17:10.159Z,8.40
2022-11-12T23:19:58.325Z,8.50
2022-11-12T23:28:07.947Z,8.30
2022-11-12T23:31:06.616Z,8.40
2022-11-12T23:33:59.144Z,8.50
2022-11-12T23:53:04.367Z,8.50
